Aeropuerto Internacional de la Ciudad de México, México

4:25 PM CDT en Agosto 24, 2016 (GMT -0500)
Avenida Santiago | | Change Station

Alt 7342 ft 19.39 °N, 99.13 °W | Updated 6 minutes ago

Mostly Cloudy
Muy nublado
78.4 ° F
Sensación térmica 79 ° F
N
3.1
Viento Variable Viento desde ESE
Gusts 6.8 mph

Hoy
Alta -- | Baja -- ° F
--% Posibilidad de precipitaciones
Ayer
Alta -- | Baja -- ° F
Precip. -- pul
Presión 29.80 pul
Visibilidad 7.0 Millas
Nubes Nubes dispersas 1500 ft
Muy nublado 7000 ft
Muy nublado 20000 ft
Índice de calor 79 ° F
Punto de rocío 56 ° F
Humedad 46%
Precipitaciones 0.00 pul
Espesor de la nieve No disponible.
7:19 AM 7:57 PM
Gibosa menguante, 53% visible
METAR MMTO 242047Z 00000KT 7SM SCT015TCU BKN070 BKN200 20/08 A3042 RMK SLP091 57023 954 8/232 HZY
Presión 29.80 pul
Visibilidad 7.0 Millas
Nubes Nubes dispersas 1500 ft
Muy nublado 7000 ft
Muy nublado 20000 ft
Índice de calor 79 ° F
Punto de rocío 56 ° F
Humedad 46%
Precipitaciones 0.00 pul
Espesor de la nieve No disponible.
7:19 AM 7:57 PM
Gibosa menguante, 53% visible
METAR MMTO 242047Z 00000KT 7SM SCT015TCU BKN070 BKN200 20/08 A3042 RMK SLP091 57023 954 8/232 HZY

10-Day Weather Forecast

No radar image for this location.
×

Almanac

Astronomía

Aug. 24, 2016 Salida Puesta
Hora real
Crepúsculo civil
Crepúsculo náutico
Crepúsculo astronómico
Luna
Horas de luz
Horas de luz
Tomorrow will be .
, % of the Moon is Illuminated

Extremos de hoy

Máximos del país Bajas del país

Community

WunderPhotos

Upload Photos

1,934,719 ¡fotos cargadas!

WunderBlog® & News

Nearby

Calidad del aire

  Calidad del aire Índice AQ Contaminante
Not available.

Grosos de nieve

Estación Profundido Altura

Actividad de terremotos

Ciudad Distance Mag. Tiempo y dato
Magnitud mínima muestra es 2,5.

Temperaturas de aguas costeras

Lugar Temperatura

Stations

Estaciones meteorológicas cercanas

Ubicación de la estación Temp. Vientos helados Punto de rocío Humedad Viento Precip. Alt Actualizado Tipo